Time;durP1;ratioP1;P1;durP2;ratioP2;P2;SDS_P1;SDS_P2;PMS_P1;PMS_P2;Temp;Humidity;BMP_temperature;BMP_pressure;BME280_temperature;BME280_humidity;BME280_pressure;Samples;Min_cycle;Max_cycle;Signal;HPM_P1;HPM_P2
2022/11/25 00:01:45;;;;;;;0.20;0.20;;;;;;;2.59;100.00;96277.34;4954790;28;20236;-74
2022/11/25 00:04:35;;;;;;;0.10;0.10;;;;;;;2.62;100.00;96284.84;4956011;28;20042;-73
2022/11/25 00:07:21;;;;;;;0.20;0.20;;;;;;;2.76;100.00;96280.38;4956220;28;20105;-72
2022/11/25 00:10:08;;;;;;;0.17;0.17;;;;;;;2.86;100.00;96280.78;4956187;28;20070;-75
2022/11/25 00:12:54;;;;;;;0.10;0.10;;;;;;;2.79;100.00;96270.22;4956084;28;20049;-73
2022/11/25 00:15:40;;;;;;;0.20;0.20;;;;;;;2.84;100.00;96266.97;4958154;28;20065;-73
2022/11/25 00:18:27;;;;;;;0.10;0.10;;;;;;;2.83;100.00;96268.00;4954950;28;20046;-74
2022/11/25 00:21:16;;;;;;;0.22;0.20;;;;;;;2.82;100.00;96273.47;4956552;28;20042;-74
2022/11/25 00:24:05;;;;;;;0.17;0.17;;;;;;;2.70;100.00;96265.34;4955943;28;20390;-73
2022/11/25 00:26:51;;;;;;;0.15;0.15;;;;;;;2.61;100.00;96262.09;4957972;28;20035;-73
2022/11/25 00:29:37;;;;;;;0.20;0.20;;;;;;;2.58;100.00;96256.41;4957353;28;20038;-73
2022/11/25 00:32:23;;;;;;;0.10;0.10;;;;;;;2.54;100.00;96249.91;4953404;28;20566;-72
2022/11/25 00:35:08;;;;;;;0.10;0.10;;;;;;;2.55;100.00;96248.88;4954884;28;20107;-74
2022/11/25 00:37:55;;;;;;;0.13;0.13;;;;;;;2.53;100.00;96245.63;4958233;28;20589;-74
2022/11/25 00:40:40;;;;;;;0.10;0.10;;;;;;;2.45;100.00;96234.25;4955967;28;20058;-72
2022/11/25 00:46:33;;;;;;;0.20;0.20;;;;;;;2.49;100.00;96250.50;4956343;28;20756;-72
2022/11/25 00:49:19;;;;;;;0.20;0.20;;;;;;;2.49;100.00;96243.41;4960100;28;20054;-73
2022/11/25 00:52:06;;;;;;;0.20;0.20;;;;;;;2.50;100.00;96245.03;4959087;28;20201;-74
2022/11/25 00:54:53;;;;;;;0.10;0.10;;;;;;;2.54;100.00;96241.97;4954221;28;20133;-75
2022/11/25 00:57:39;;;;;;;0.13;0.13;;;;;;;2.62;100.00;96247.06;4953775;28;20038;-74
2022/11/25 01:00:25;;;;;;;0.20;0.20;;;;;;;2.64;100.00;96250.28;4955849;28;21612;-75
2022/11/25 01:03:10;;;;;;;0.10;0.10;;;;;;;2.61;100.00;96240.16;4957502;28;20046;-74
2022/11/25 01:06:01;;;;;;;0.10;0.10;;;;;;;2.67;100.00;96250.72;4954677;28;20333;-73
2022/11/25 01:08:47;;;;;;;0.17;0.17;;;;;;;2.66;100.00;96253.56;4955420;28;20034;-74
2022/11/25 01:11:34;;;;;;;0.10;0.10;;;;;;;2.69;100.00;96256.59;4959397;28;20481;-73
2022/11/25 01:14:20;;;;;;;0.10;0.10;;;;;;;2.68;100.00;96248.88;4955368;28;20201;-71
2022/11/25 01:17:06;;;;;;;0.20;0.20;;;;;;;2.72;100.00;96256.22;4956011;28;20573;-69
2022/11/25 01:19:52;;;;;;;0.13;0.13;;;;;;;2.73;100.00;96257.84;4953505;28;20174;-75
2022/11/25 01:22:39;;;;;;;0.20;0.20;;;;;;;2.79;100.00;96261.47;4948465;28;20168;-74
2022/11/25 01:25:24;;;;;;;0.20;0.20;;;;;;;2.79;100.00;96264.13;4954917;28;20089;-69
2022/11/25 01:28:12;;;;;;;0.20;0.20;;;;;;;2.81;100.00;96259.47;4953471;28;20042;-74
2022/11/25 01:31:04;;;;;;;0.20;0.20;;;;;;;2.84;100.00;96256.41;4969660;28;20050;-74
2022/11/25 01:33:55;;;;;;;0.17;0.17;;;;;;;2.87;100.00;96258.63;4965465;28;20046;-73
2022/11/25 01:36:41;;;;;;;0.10;0.10;;;;;;;2.86;100.00;96259.63;4953931;28;20468;-69
2022/11/25 01:39:27;;;;;;;0.30;0.28;;;;;;;2.87;100.00;96258.63;4957356;28;20078;-74
2022/11/25 01:42:13;;;;;;;0.20;0.20;;;;;;;2.84;100.00;96251.09;4950085;28;20515;-74
2022/11/25 01:45:20;;;;;;;0.20;0.20;;;;;;;2.86;100.00;96240.31;4955300;28;20219;-73
2022/11/25 01:48:18;;;;;;;0.10;0.10;;;;;;;2.84;100.00;96240.53;4956728;28;20039;-69
2022/11/25 01:51:08;;;;;;;0.20;0.20;;;;;;;2.85;100.00;96242.16;4957994;28;20038;-74
2022/11/25 01:53:57;;;;;;;0.17;0.17;;;;;;;2.91;100.00;96245.81;4955250;28;20104;-75
2022/11/25 01:56:53;;;;;;;0.10;0.10;;;;;;;2.94;100.00;96240.91;4958822;28;20053;-72
2022/11/25 01:59:45;;;;;;;0.17;0.17;;;;;;;2.98;100.00;96257.19;4962557;28;20710;-73
2022/11/25 02:02:31;;;;;;;0.13;0.13;;;;;;;2.94;100.00;96230.34;4963438;28;20047;-70
2022/11/25 02:05:29;;;;;;;0.20;0.20;;;;;;;3.07;100.00;96238.25;4956112;28;20189;-69
2022/11/25 02:08:15;;;;;;;0.10;0.10;;;;;;;3.16;100.00;96230.91;4955768;28;20054;-71
2022/11/25 02:11:05;;;;;;;0.10;0.10;;;;;;;3.25;100.00;96232.31;4948204;28;20461;-76
2022/11/25 02:13:52;;;;;;;0.15;0.15;;;;;;;3.34;100.00;96219.66;4947782;28;20047;-73
2022/11/25 02:16:38;;;;;;;0.15;0.15;;;;;;;3.41;100.00;96231.03;4950770;28;20046;-72
2022/11/25 02:19:38;;;;;;;0.10;0.10;;;;;;;3.38;100.00;96231.47;4942828;28;20046;-73
2022/11/25 02:22:46;;;;;;;0.20;0.20;;;;;;;3.43;100.00;96234.31;4949658;28;20073;-69
2022/11/25 02:25:34;;;;;;;0.20;0.20;;;;;;;3.45;100.00;96221.69;4959949;28;20372;-73
2022/11/25 02:28:25;;;;;;;0.20;0.20;;;;;;;3.48;100.00;96215.97;4941843;28;20285;-73
2022/11/25 02:31:19;;;;;;;0.10;0.10;;;;;;;3.63;100.00;96221.81;4958452;28;20154;-72
2022/11/25 02:34:04;;;;;;;0.15;0.15;;;;;;;3.71;100.00;96220.75;4949470;28;20042;-74
2022/11/25 02:36:53;;;;;;;0.17;0.17;;;;;;;3.71;100.00;96222.59;4947807;28;20350;-73
2022/11/25 02:39:39;;;;;;;0.10;0.10;;;;;;;3.69;100.00;96222.81;4946610;28;20053;-72
2022/11/25 02:42:28;;;;;;;0.10;0.10;;;;;;;3.75;100.00;96211.38;4948130;28;20045;-70
2022/11/25 02:45:23;;;;;;;0.25;0.22;;;;;;;3.77;100.00;96209.31;4950129;28;20117;-72
2022/11/25 02:48:09;;;;;;;0.20;0.20;;;;;;;3.79;100.00;96207.28;4956177;28;20174;-73
2022/11/25 02:50:56;;;;;;;0.17;0.17;;;;;;;3.70;100.00;96219.13;4945936;28;20066;-75
2022/11/25 02:53:42;;;;;;;0.10;0.10;;;;;;;3.73;100.00;96217.88;4946774;28;20188;-70
2022/11/25 02:56:32;;;;;;;0.13;0.13;;;;;;;3.79;100.00;96227.63;4944015;28;20510;-71
2022/11/25 02:59:18;;;;;;;0.20;0.20;;;;;;;3.81;100.00;96223.78;4958461;28;20102;-72
2022/11/25 03:02:05;;;;;;;0.20;0.20;;;;;;;3.78;100.00;96231.31;4941059;28;20157;-72
2022/11/25 03:04:50;;;;;;;0.13;0.13;;;;;;;3.84;100.00;96225.19;4949281;28;20110;-73
2022/11/25 03:07:38;;;;;;;0.20;0.20;;;;;;;3.79;100.00;96219.69;4945252;28;20121;-71
2022/11/25 03:10:24;;;;;;;0.17;0.17;;;;;;;3.76;100.00;96220.94;4958501;28;20093;-69
2022/11/25 03:13:12;;;;;;;0.20;0.20;;;;;;;3.70;100.00;96213.84;4955753;28;20327;-72
2022/11/25 03:15:58;;;;;;;0.20;0.20;;;;;;;3.76;100.00;96209.53;4952003;28;20134;-73
2022/11/25 03:18:45;;;;;;;0.20;0.20;;;;;;;3.83;100.00;96223.56;4945244;28;21182;-72
2022/11/25 03:21:31;;;;;;;0.10;0.10;;;;;;;3.83;100.00;96224.38;4949707;28;20463;-68
2022/11/25 03:24:17;;;;;;;0.10;0.10;;;;;;;3.84;100.00;96217.25;4940756;28;20045;-72
2022/11/25 03:27:06;;;;;;;0.20;0.20;;;;;;;3.82;100.00;96220.09;4943148;28;20069;-73
2022/11/25 03:29:52;;;;;;;0.17;0.17;;;;;;;3.83;100.00;96224.38;4957751;28;20326;-74
2022/11/25 03:32:39;;;;;;;0.20;0.20;;;;;;;3.81;100.00;96205.25;4945574;28;20050;-71
2022/11/25 03:35:26;;;;;;;0.10;0.10;;;;;;;3.79;100.00;96214.41;4945347;28;20038;-74
2022/11/25 03:38:12;;;;;;;0.10;0.10;;;;;;;3.85;100.00;96219.66;4956264;28;20104;-71
2022/11/25 03:40:59;;;;;;;0.20;0.20;;;;;;;3.94;100.00;96214.94;4958079;28;20066;-70
2022/11/25 03:43:47;;;;;;;0.10;0.10;;;;;;;4.00;100.00;96200.03;4937014;28;20075;-72
2022/11/25 03:46:33;;;;;;;0.15;0.15;;;;;;;4.05;100.00;96198.38;4947563;28;20879;-72
2022/11/25 03:49:22;;;;;;;0.20;0.20;;;;;;;4.03;100.00;96211.00;4948128;28;20726;-70
2022/11/25 03:52:08;;;;;;;0.20;0.20;;;;;;;3.96;100.00;96198.84;4958888;28;20038;-71
2022/11/25 03:54:54;;;;;;;0.20;0.20;;;;;;;4.04;100.00;96204.69;4946446;28;20581;-74
2022/11/25 03:57:43;;;;;;;0.20;0.20;;;;;;;4.11;100.00;96204.66;4956565;28;20825;-69
2022/11/25 04:00:32;;;;;;;0.10;0.10;;;;;;;4.12;100.00;96203.63;4932183;28;20133;-74
2022/11/25 04:03:22;;;;;;;0.20;0.20;;;;;;;4.13;100.00;96192.84;4935753;28;20581;-74
2022/11/25 04:06:08;;;;;;;0.20;0.20;;;;;;;4.09;100.00;96190.81;4957484;28;20069;-73
2022/11/25 04:08:54;;;;;;;0.20;0.20;;;;;;;4.07;100.00;96196.31;4944858;28;20088;-74
2022/11/25 04:14:50;;;;;;;0.10;0.10;;;;;;;4.03;100.00;96196.97;4950933;28;20050;-74
2022/11/25 04:17:37;;;;;;;0.20;0.20;;;;;;;4.00;100.00;96190.25;4947872;28;20042;-74
2022/11/25 04:20:22;;;;;;;0.20;0.20;;;;;;;4.05;100.00;96184.34;4947734;28;20436;-74
2022/11/25 04:23:15;;;;;;;0.10;0.10;;;;;;;4.07;100.00;96176.97;4943241;28;20074;-73
2022/11/25 04:26:09;;;;;;;0.17;0.17;;;;;;;4.01;100.00;96178.63;4948902;28;20035;-71
2022/11/25 04:28:58;;;;;;;0.10;0.10;;;;;;;3.99;100.00;96174.59;4954875;28;20605;-70
2022/11/25 04:31:44;;;;;;;0.10;0.10;;;;;;;4.02;100.00;96169.66;4951341;28;20030;-72
2022/11/25 04:34:30;;;;;;;0.20;0.20;;;;;;;4.03;100.00;96176.59;4944819;28;20169;-73
2022/11/25 04:37:17;;;;;;;0.10;0.10;;;;;;;4.04;100.00;96183.50;4947422;28;20312;-71
2022/11/25 04:40:06;;;;;;;0.20;0.20;;;;;;;4.08;100.00;96190.00;4942715;28;20486;-72
2022/11/25 04:42:53;;;;;;;0.20;0.20;;;;;;;4.01;100.00;96183.13;4956384;28;20049;-75
2022/11/25 04:45:41;;;;;;;0.20;0.20;;;;;;;4.09;100.00;96199.56;4939837;28;20764;-73
2022/11/25 04:48:27;;;;;;;0.20;0.20;;;;;;;4.06;100.00;96202.66;4942796;28;20057;-75
2022/11/25 04:51:14;;;;;;;0.20;0.20;;;;;;;4.07;100.00;96204.28;4942790;28;20058;-71
2022/11/25 04:54:00;;;;;;;0.22;0.20;;;;;;;4.09;100.00;96212.81;4943815;28;20444;-73
2022/11/25 04:56:46;;;;;;;0.20;0.20;;;;;;;4.15;100.00;96219.91;4943600;28;20046;-70
2022/11/25 04:59:40;;;;;;;0.20;0.20;;;;;;;4.13;100.00;96218.50;4943818;28;20534;-76
2022/11/25 05:02:28;;;;;;;0.20;0.20;;;;;;;4.14;100.00;96220.94;4945076;28;20050;-75
2022/11/25 05:05:19;;;;;;;0.15;0.15;;;;;;;4.15;100.00;96217.25;4946457;28;20047;-72
2022/11/25 05:08:05;;;;;;;0.10;0.10;;;;;;;4.21;100.00;96217.44;4969488;28;20727;-73
2022/11/25 05:10:51;;;;;;;0.15;0.15;;;;;;;4.25;100.00;96214.13;4967955;28;20053;-75
2022/11/25 05:13:38;;;;;;;0.20;0.20;;;;;;;4.22;100.00;96211.91;4964641;28;20038;-75
2022/11/25 05:16:24;;;;;;;0.20;0.20;;;;;;;4.30;100.00;96219.59;4963186;28;20099;-74
2022/11/25 05:19:11;;;;;;;0.20;0.20;;;;;;;4.31;100.00;96231.00;4963067;28;20396;-72
2022/11/25 05:21:58;;;;;;;0.10;0.10;;;;;;;4.24;100.00;96232.88;4963123;28;20546;-72
2022/11/25 05:24:44;;;;;;;0.20;0.20;;;;;;;4.31;100.00;96225.72;4978922;28;20054;-76
2022/11/25 05:27:31;;;;;;;0.10;0.10;;;;;;;4.36;100.00;96217.94;4967976;28;20359;-70
2022/11/25 05:30:21;;;;;;;0.10;0.10;;;;;;;4.40;100.00;96221.78;4969211;28;20068;-74
2022/11/25 05:33:07;;;;;;;0.20;0.20;;;;;;;4.34;100.00;96215.50;4980696;28;20537;-73
2022/11/25 05:35:57;;;;;;;0.10;0.10;;;;;;;4.41;100.00;96210.16;4970037;28;20457;-71
2022/11/25 05:38:47;;;;;;;0.20;0.20;;;;;;;4.39;100.00;96214.84;4966480;28;20331;-75
2022/11/25 05:41:39;;;;;;;0.10;0.10;;;;;;;4.37;100.00;96222.22;4971431;28;20050;-72
2022/11/25 05:44:26;;;;;;;0.20;0.20;;;;;;;4.41;100.00;96220.75;4979759;28;20046;-72
2022/11/25 05:47:12;;;;;;;0.20;0.20;;;;;;;4.40;100.00;96222.59;4977144;28;20042;-75
2022/11/25 05:49:59;;;;;;;0.10;0.10;;;;;;;4.41;100.00;96223.38;4966735;28;20289;-72
2022/11/25 05:52:45;;;;;;;0.10;0.10;;;;;;;4.41;100.00;96236.63;4971488;28;20575;-72
2022/11/25 05:55:31;;;;;;;0.20;0.20;;;;;;;4.41;100.00;96232.16;4970763;28;20338;-73
2022/11/25 05:58:23;;;;;;;0.10;0.10;;;;;;;4.44;100.00;96241.53;4970138;28;20740;-71
2022/11/25 06:01:14;;;;;;;0.10;0.10;;;;;;;4.41;100.00;96241.94;4967516;28;20073;-72
2022/11/25 06:04:00;;;;;;;0.10;0.10;;;;;;;4.40;100.00;96241.13;4958317;28;20217;-71
2022/11/25 06:06:46;;;;;;;0.10;0.10;;;;;;;4.43;100.00;96239.88;4980230;28;20136;-73
2022/11/25 06:09:33;;;;;;;0.30;0.28;;;;;;;4.41;100.00;96239.28;4967717;28;20066;-74
2022/11/25 06:12:21;;;;;;;0.10;0.10;;;;;;;4.41;100.00;96241.94;4965762;28;20468;-72
2022/11/25 06:15:09;;;;;;;0.20;0.20;;;;;;;4.43;100.00;96261.06;4971569;28;20191;-72
2022/11/25 06:17:55;;;;;;;0.20;0.20;;;;;;;4.46;100.00;96258.00;4980282;28;20152;-74
2022/11/25 06:20:44;;;;;;;0.20;0.20;;;;;;;4.45;100.00;96261.69;4957371;28;20365;-74
2022/11/25 06:23:30;;;;;;;0.20;0.20;;;;;;;4.44;100.00;96258.22;4969040;28;20045;-74
2022/11/25 06:26:20;;;;;;;0.20;0.20;;;;;;;4.51;100.00;96263.47;4968023;28;20406;-72
2022/11/25 06:29:06;;;;;;;0.20;0.20;;;;;;;4.51;100.00;96258.16;4966543;28;20075;-75
2022/11/25 06:31:52;;;;;;;0.10;0.10;;;;;;;4.59;100.00;96262.38;4978430;28;20511;-72
2022/11/25 06:35:01;;;;;;;0.20;0.20;;;;;;;4.52;100.00;96267.75;4978062;28;20372;-73
2022/11/25 06:38:00;;;;;;;0.10;0.10;;;;;;;4.52;100.00;96262.47;4970551;28;20117;-74
2022/11/25 06:40:46;;;;;;;0.20;0.20;;;;;;;4.63;100.00;96267.06;4980611;28;20096;-73
2022/11/25 06:43:31;;;;;;;0.10;0.10;;;;;;;4.66;100.00;96263.97;4964015;28;20058;-73
2022/11/25 06:46:19;;;;;;;0.13;0.13;;;;;;;4.69;100.00;96282.09;4982656;28;20058;-74
2022/11/25 06:49:06;;;;;;;0.10;0.10;;;;;;;4.70;100.00;96267.81;4978917;28;20408;-74
2022/11/25 06:51:51;;;;;;;0.10;0.10;;;;;;;4.74;100.00;96276.94;4980385;28;20387;-73
2022/11/25 06:54:40;;;;;;;0.20;0.20;;;;;;;4.62;100.00;96286.63;4980444;28;20139;-74
2022/11/25 06:57:26;;;;;;;0.10;0.10;;;;;;;4.60;100.00;96287.88;4977868;28;20155;-74
2022/11/25 07:00:13;;;;;;;0.10;0.10;;;;;;;4.55;100.00;96287.72;4971191;28;20057;-74
2022/11/25 07:02:59;;;;;;;0.10;0.10;;;;;;;4.53;100.00;96289.78;4978379;28;20814;-73
2022/11/25 07:05:44;;;;;;;0.20;0.20;;;;;;;4.52;100.00;96294.25;4977866;28;20138;-73
2022/11/25 07:08:30;;;;;;;0.17;0.17;;;;;;;4.50;100.00;96291.00;4977456;28;20498;-73
2022/11/25 07:11:26;;;;;;;0.10;0.10;;;;;;;4.46;100.00;96280.03;4980676;28;20313;-72
2022/11/25 07:14:14;;;;;;;0.20;0.20;;;;;;;4.50;100.00;96301.59;4979499;28;20506;-74
2022/11/25 07:17:00;;;;;;;0.13;0.13;;;;;;;4.46;100.00;96314.47;4970976;28;20130;-72
2022/11/25 07:19:46;;;;;;;0.13;0.13;;;;;;;4.48;100.00;96304.47;4976925;28;20049;-71
2022/11/25 07:22:32;;;;;;;0.10;0.10;;;;;;;4.55;100.00;96309.72;4978072;28;20054;-71
2022/11/25 07:25:17;;;;;;;0.20;0.20;;;;;;;4.46;100.00;96317.13;4980634;28;20050;-73
2022/11/25 07:28:06;;;;;;;0.10;0.10;;;;;;;4.47;100.00;96323.22;4979982;28;20042;-73
2022/11/25 07:30:52;;;;;;;0.20;0.20;;;;;;;4.50;100.00;96312.19;4974585;28;25071;-73
2022/11/25 07:33:40;;;;;;;0.10;0.10;;;;;;;4.49;100.00;96321.16;4633003;28;10000534;-73
2022/11/25 07:36:27;;;;;;;0.10;0.10;;;;;;;4.51;100.00;96324.41;4980329;28;20054;-74
2022/11/25 07:39:16;;;;;;;0.13;0.13;;;;;;;4.55;100.00;96330.13;4977722;28;20101;-75
2022/11/25 07:42:02;;;;;;;0.20;0.20;;;;;;;4.61;100.00;96329.25;4978932;28;20097;-73
2022/11/25 07:44:48;;;;;;;0.20;0.20;;;;;;;4.55;100.00;96328.28;4963133;28;20038;-71
2022/11/25 07:47:52;;;;;;;0.20;0.20;;;;;;;4.55;100.00;96346.00;4977757;28;20152;-74
2022/11/25 07:50:38;;;;;;;0.15;0.15;;;;;;;4.53;100.00;96340.94;4979340;28;20339;-75
2022/11/25 07:53:24;;;;;;;0.13;0.13;;;;;;;4.66;100.00;96343.47;4977146;28;20438;-73
2022/11/25 07:56:10;;;;;;;0.20;0.20;;;;;;;4.68;100.00;96345.94;4982256;28;20038;-73
2022/11/25 07:58:56;;;;;;;0.15;0.15;;;;;;;4.71;100.00;96348.16;4972624;28;20080;-76
2022/11/25 08:01:42;;;;;;;0.10;0.10;;;;;;;4.72;100.00;96344.47;4961642;28;20053;-75
2022/11/25 08:04:28;;;;;;;0.10;0.10;;;;;;;4.66;100.00;96354.09;4964045;28;20057;-75
2022/11/25 08:07:14;;;;;;;0.10;0.10;;;;;;;4.72;100.00;96345.28;4978449;28;20339;-75
2022/11/25 08:10:00;;;;;;;0.20;0.20;;;;;;;4.81;100.00;96355.63;4976502;28;20391;-72
2022/11/25 08:12:46;;;;;;;0.10;0.10;;;;;;;4.87;100.00;96350.28;4977523;28;20291;-75
2022/11/25 08:15:32;;;;;;;0.10;0.10;;;;;;;4.91;100.00;96358.63;4978332;28;20248;-72
2022/11/25 08:18:18;;;;;;;0.10;0.10;;;;;;;5.04;100.00;96361.16;4975213;28;20085;-71
2022/11/25 08:21:06;;;;;;;0.20;0.20;;;;;;;5.00;100.00;96352.84;4954681;28;20054;-70
2022/11/25 08:23:52;;;;;;;0.30;0.22;;;;;;;5.04;100.00;96372.59;4978110;28;20354;-75
2022/11/25 08:26:38;;;;;;;0.10;0.10;;;;;;;5.05;100.00;96357.50;4976433;28;20089;-73
2022/11/25 08:29:24;;;;;;;0.17;0.17;;;;;;;5.21;100.00;96351.66;4973948;28;20073;-71
2022/11/25 08:32:10;;;;;;;0.10;0.10;;;;;;;5.39;100.00;96358.03;4967770;28;20096;-74
2022/11/25 08:34:56;;;;;;;0.10;0.10;;;;;;;5.45;100.00;96352.69;4978497;28;20034;-76
2022/11/25 08:37:42;;;;;;;0.15;0.15;;;;;;;5.45;100.00;96347.38;4965558;28;20049;-71
2022/11/25 08:40:28;;;;;;;0.10;0.10;;;;;;;5.50;100.00;96352.81;4979003;28;20061;-74
2022/11/25 08:43:14;;;;;;;0.10;0.10;;;;;;;5.40;100.00;96336.59;4976953;28;20050;-72
2022/11/25 08:46:00;;;;;;;0.10;0.10;;;;;;;5.41;100.00;96358.63;4977558;28;20045;-73
2022/11/25 08:48:46;;;;;;;0.10;0.10;;;;;;;5.51;100.00;96358.94;4975454;28;20251;-74
2022/11/25 08:51:34;;;;;;;0.10;0.10;;;;;;;5.62;100.00;96360.88;4974730;28;20085;-75
2022/11/25 08:54:20;;;;;;;0.10;0.10;;;;;;;5.71;100.00;96375.50;4977117;28;20340;-72
2022/11/25 08:57:06;;;;;;;0.10;0.10;;;;;;;5.67;100.00;96370.81;4976182;28;20038;-73
2022/11/25 08:59:52;;;;;;;0.10;0.10;;;;;;;5.55;100.00;96382.19;4975545;28;20130;-73
2022/11/25 09:02:38;;;;;;;0.15;0.15;;;;;;;5.62;100.00;96386.63;4974386;28;20522;-72
2022/11/25 09:05:24;;;;;;;0.17;0.17;;;;;;;5.64;100.00;96384.56;4976937;28;20049;-72
2022/11/25 09:08:11;;;;;;;0.20;0.20;;;;;;;5.69;100.00;96388.19;4976186;28;20515;-71
2022/11/25 09:10:59;;;;;;;0.10;0.10;;;;;;;5.91;100.00;96390.44;4978675;28;20041;-76
2022/11/25 09:13:45;;;;;;;0.17;0.17;;;;;;;5.71;100.00;96399.38;4974249;28;20064;-73
2022/11/25 09:16:31;;;;;;;0.10;0.10;;;;;;;6.04;100.00;96403.56;4968609;28;20080;-74
2022/11/25 09:19:18;;;;;;;0.17;0.17;;;;;;;6.20;100.00;96408.31;4977549;28;20038;-74
2022/11/25 09:22:04;;;;;;;0.10;0.10;;;;;;;6.30;100.00;96399.81;4977586;28;20100;-75
2022/11/25 09:24:50;;;;;;;0.20;0.20;;;;;;;6.23;100.00;96412.38;4941103;28;20038;-71
2022/11/25 09:27:36;;;;;;;0.10;0.10;;;;;;;6.24;100.00;96406.84;4967153;28;20120;-75
2022/11/25 09:30:23;;;;;;;0.28;0.20;;;;;;;6.23;100.00;96413.19;4963255;28;20057;-73
2022/11/25 09:33:09;;;;;;;0.20;0.20;;;;;;;6.31;100.00;96418.22;4976503;28;20446;-73
2022/11/25 09:35:59;;;;;;;0.10;0.10;;;;;;;6.43;100.00;96421.72;4980362;28;20476;-75
2022/11/25 09:38:45;;;;;;;0.30;0.30;;;;;;;6.63;100.00;96420.69;4978832;28;20046;-74
2022/11/25 09:48:51;;;;;;;0.20;0.20;;;;;;;6.51;100.00;96438.41;4973074;28;20056;-72
2022/11/25 09:51:55;;;;;;;0.20;0.20;;;;;;;6.87;100.00;96433.03;4974397;28;20050;-74
2022/11/25 09:54:47;;;;;;;0.17;0.17;;;;;;;6.71;100.00;96449.63;4978509;28;20333;-75
2022/11/25 09:57:35;;;;;;;0.10;0.10;;;;;;;6.85;100.00;96447.63;4970762;28;20057;-72
2022/11/25 10:00:22;;;;;;;0.10;0.10;;;;;;;6.67;100.00;96454.56;4978014;28;20692;-74
2022/11/25 10:03:32;;;;;;;0.20;0.20;;;;;;;6.98;100.00;96460.72;4963142;28;20047;-74
2022/11/25 10:06:31;;;;;;;0.10;0.10;;;;;;;7.31;100.00;96457.56;4978627;28;20140;-74
2022/11/25 10:09:22;;;;;;;0.10;0.10;;;;;;;7.13;100.00;96455.00;4963126;28;20313;-74
2022/11/25 10:12:28;;;;;;;0.20;0.20;;;;;;;8.20;100.00;96468.22;4978185;28;20042;-75
2022/11/25 10:15:38;;;;;;;0.10;0.10;;;;;;;7.60;100.00;96455.09;4981853;28;20157;-75
2022/11/25 10:18:38;;;;;;;0.20;0.20;;;;;;;7.84;100.00;96459.41;4972752;28;20531;-74
2022/11/25 10:21:27;;;;;;;0.10;0.10;;;;;;;7.65;100.00;96465.88;4980237;28;20485;-74
2022/11/25 10:24:16;;;;;;;0.20;0.20;;;;;;;8.07;100.00;96455.94;4980120;28;20549;-75
2022/11/25 10:27:07;;;;;;;0.20;0.20;;;;;;;10.13;100.00;96449.63;4955125;28;20072;-73
2022/11/25 10:30:26;;;;;;;0.30;0.30;;;;;;;10.52;100.00;96461.16;4978754;28;20315;-72
2022/11/25 10:33:21;;;;;;;0.20;0.20;;;;;;;13.69;100.00;96457.78;4960114;28;20182;-71
2022/11/25 10:36:23;;;;;;;0.13;0.13;;;;;;;11.69;100.00;96457.09;4980599;28;20042;-75
2022/11/25 10:39:19;;;;;;;0.20;0.20;;;;;;;11.29;100.00;96477.06;4977793;28;20312;-75
2022/11/25 10:42:13;;;;;;;0.10;0.10;;;;;;;10.53;100.00;96486.88;4980730;28;20165;-72
2022/11/25 10:44:58;;;;;;;0.20;0.20;;;;;;;11.00;100.00;96486.38;4969290;28;20315;-75
2022/11/25 10:48:05;;;;;;;0.20;0.20;;;;;;;10.82;100.00;96485.66;4982197;28;20031;-74
2022/11/25 10:51:10;;;;;;;0.15;0.15;;;;;;;10.48;100.00;96481.44;4981192;28;20622;-75
2022/11/25 10:54:14;;;;;;;0.10;0.10;;;;;;;10.23;100.00;96484.56;4978451;28;20423;-74
2022/11/25 10:57:02;;;;;;;0.20;0.20;;;;;;;10.23;100.00;96488.06;4973262;28;20566;-73
2022/11/25 10:59:57;;;;;;;0.10;0.10;;;;;;;10.29;100.00;96497.78;4976918;28;20409;-75
2022/11/25 11:02:47;;;;;;;0.20;0.20;;;;;;;10.58;100.00;96492.28;4968659;28;20538;-72
2022/11/25 11:05:33;;;;;;;0.10;0.10;;;;;;;10.73;100.00;96497.00;4970364;28;20062;-74
2022/11/25 11:08:24;;;;;;;0.10;0.10;;;;;;;10.37;100.00;96498.41;4976182;28;20255;-74
2022/11/25 11:11:13;;;;;;;;;;;;;;;10.32;100.00;96493.78;4973888;28;20066;-75
2022/11/25 11:14:17;;;;;;;0.10;0.10;;;;;;;9.82;100.00;96497.28;4978526;28;20381;-75
2022/11/25 11:17:03;;;;;;;0.20;0.20;;;;;;;11.03;100.00;96502.75;4962729;28;20050;-75
2022/11/25 11:20:29;;;;;;;0.15;0.15;;;;;;;11.80;100.00;96496.34;4972448;28;20273;-75
2022/11/25 11:23:16;;;;;;;0.10;0.10;;;;;;;13.98;100.00;96498.41;4948419;28;20049;-72
2022/11/25 11:26:09;;;;;;;0.10;0.10;;;;;;;13.79;100.00;96510.78;4977714;28;20249;-73
2022/11/25 11:29:04;;;;;;;0.20;0.20;;;;;;;15.95;100.00;96506.13;4960798;28;20805;-74
2022/11/25 11:32:00;;;;;;;0.30;0.30;;;;;;;17.47;100.00;96511.88;4969732;28;20058;-73
2022/11/25 11:35:20;;;;;;;0.20;0.20;;;;;;;20.02;79.28;96507.31;4976650;28;20047;-75
2022/11/25 11:38:33;;;;;;;0.20;0.20;;;;;;;21.38;54.98;96493.19;4959712;28;20042;-77
2022/11/25 11:41:29;;;;;;;0.20;0.20;;;;;;;22.51;58.36;96496.78;4979771;28;20319;-76
2022/11/25 11:44:23;;;;;;;0.20;0.20;;;;;;;24.04;44.38;96497.47;4969127;28;20052;-78
2022/11/25 11:47:29;;;;;;;0.20;0.20;;;;;;;25.40;44.24;96496.72;4977225;28;20113;-75
2022/11/25 11:50:27;;;;;;;0.10;0.10;;;;;;;25.97;45.24;96504.75;4976199;28;20112;-75
2022/11/25 11:53:27;;;;;;;0.20;0.20;;;;;;;23.55;54.09;96513.53;4975215;28;20395;-71
2022/11/25 11:56:18;;;;;;;0.00;0.00;;;;;;;20.05;80.40;96512.13;4978750;28;20033;-73
2022/11/25 11:59:12;;;;;;;0.10;0.10;;;;;;;18.07;94.41;96525.66;4974867;28;20261;-73
2022/11/25 12:02:01;;;;;;;0.20;0.20;;;;;;;20.01;83.45;96522.00;4975769;28;20093;-76
2022/11/25 12:04:53;;;;;;;0.10;0.10;;;;;;;19.51;78.25;96518.47;4976493;28;20034;-73
2022/11/25 12:08:01;;;;;;;0.10;0.10;;;;;;;18.87;83.80;96526.50;4975041;28;20270;-74
2022/11/25 12:11:00;;;;;;;0.10;0.10;;;;;;;17.66;83.16;96533.53;4977782;28;20088;-76
2022/11/25 12:14:01;;;;;;;0.20;0.20;;;;;;;20.80;60.40;96524.94;4975445;28;20046;-77
2022/11/25 12:16:56;;;;;;;0.10;0.10;;;;;;;21.67;56.73;96522.56;4978911;28;20502;-77
2022/11/25 12:19:57;;;;;;;0.10;0.10;;;;;;;18.33;81.50;96538.81;4975774;28;20299;-74
2022/11/25 12:22:58;;;;;;;0.20;0.20;;;;;;;21.05;65.50;96528.91;4977433;28;20137;-75
2022/11/25 12:25:50;;;;;;;0.30;0.30;;;;;;;22.85;54.56;96535.97;4963008;28;20498;-74
2022/11/25 12:28:56;;;;;;;0.10;0.10;;;;;;;21.05;58.76;96538.97;4975952;28;20495;-77
2022/11/25 12:31:50;;;;;;;0.13;0.13;;;;;;;17.58;78.13;96553.13;4965833;28;20045;-74
2022/11/25 12:34:49;;;;;;;0.10;0.10;;;;;;;16.22;93.99;96551.53;4961264;28;20697;-73
2022/11/25 12:37:53;;;;;;;0.10;0.10;;;;;;;15.14;100.00;96561.28;4973831;28;20046;-76
2022/11/25 12:40:53;;;;;;;0.10;0.10;;;;;;;15.19;100.00;96565.84;4978827;28;20048;-71
2022/11/25 12:43:49;;;;;;;0.20;0.20;;;;;;;15.45;100.00;96555.75;4975746;28;20042;-73
2022/11/25 12:46:44;;;;;;;0.10;0.10;;;;;;;15.12;100.00;96565.34;4976793;28;20074;-72
2022/11/25 12:49:33;;;;;;;0.20;0.20;;;;;;;15.47;100.00;96575.16;4974681;28;20986;-76
2022/11/25 12:52:52;;;;;;;0.20;0.20;;;;;;;14.35;100.00;96567.31;4971774;28;20039;-75
2022/11/25 12:55:39;;;;;;;0.10;0.10;;;;;;;13.52;100.00;96578.19;4976899;28;20049;-76
2022/11/25 12:58:31;;;;;;;0.20;0.20;;;;;;;13.18;100.00;96581.28;4974795;28;20634;-72
2022/11/25 13:01:24;;;;;;;0.10;0.10;;;;;;;12.91;100.00;96576.00;4975653;28;20644;-76
2022/11/25 13:04:22;;;;;;;0.20;0.20;;;;;;;12.43;100.00;96583.22;4975732;28;20586;-78
2022/11/25 13:07:39;;;;;;;0.20;0.20;;;;;;;12.31;100.00;96587.97;4973163;28;20558;-76
2022/11/25 13:10:42;;;;;;;0.10;0.10;;;;;;;12.03;100.00;96602.47;4969071;28;20147;-74
2022/11/25 13:13:45;;;;;;;0.10;0.10;;;;;;;12.01;100.00;96606.47;4976196;28;20586;-76
2022/11/25 13:16:32;;;;;;;0.10;0.10;;;;;;;12.51;100.00;96612.25;4976641;28;20190;-76
2022/11/25 13:19:19;;;;;;;0.10;0.10;;;;;;;12.53;100.00;96610.16;4962677;28;20486;-74
2022/11/25 13:22:28;;;;;;;0.10;0.10;;;;;;;11.68;100.00;96622.47;4973812;28;20161;-71
2022/11/25 13:25:24;;;;;;;0.10;0.10;;;;;;;11.18;100.00;96616.47;4978482;28;20069;-76
2022/11/25 13:28:42;;;;;;;0.10;0.10;;;;;;;10.98;100.00;96620.50;4972101;28;20522;-75
2022/11/25 13:31:33;;;;;;;0.10;0.10;;;;;;;10.84;100.00;96620.03;4958339;28;20914;-76
2022/11/25 13:34:19;;;;;;;0.10;0.10;;;;;;;10.62;100.00;96629.06;4975404;28;20700;-76